Time;durP1;ratioP1;P1;durP2;ratioP2;P2;SDS_P1;SDS_P2;PMS_P1;PMS_P2;Temp;Humidity;BMP_temperature;BMP_pressure;BME280_temperature;BME280_humidity;BME280_pressure;Samples;Min_cycle;Max_cycle;Signal;HPM_P1;HPM_P2
2022/04/29 00:02:12;;;;;;;2.88;1.00;;;8.50;99.90;;;;;;20830962;28;20634;-83
2022/04/29 00:12:14;;;;;;;1.92;0.63;;;8.50;99.90;;;;;;20810684;28;20053;-83
2022/04/29 00:22:16;;;;;;;3.55;1.27;;;8.40;99.90;;;;;;20834063;28;20037;-82
2022/04/29 00:32:17;;;;;;;4.85;1.27;;;8.30;99.90;;;;;;20811235;28;20499;-83
2022/04/29 00:42:24;;;;;;;2.83;1.17;;;8.30;99.90;;;;;;20813671;28;20072;-82
2022/04/29 00:52:26;;;;;;;4.47;0.93;;;8.20;99.90;;;;;;20833425;28;20053;-83
2022/04/29 01:02:28;;;;;;;2.83;1.48;;;8.20;99.90;;;;;;20844253;28;20057;-81
2022/04/29 01:12:34;;;;;;;1.98;0.85;;;8.20;99.90;;;;;;20834668;28;20855;-81
2022/04/29 01:22:36;;;;;;;3.83;1.30;;;8.10;99.90;;;;;;20815535;28;20101;-81
2022/04/29 01:32:39;;;;;;;5.07;1.60;;;8.00;99.90;;;;;;20834011;28;20053;-81
2022/04/29 01:42:41;;;;;;;2.40;1.10;;;8.00;99.90;;;;;;20855198;28;20101;-81
2022/04/29 01:52:43;;;;;;;2.10;1.00;;;8.00;99.90;;;;;;20806722;28;20125;-81
2022/04/29 02:02:45;;;;;;;3.80;1.52;;;7.90;99.90;;;;;;20817046;28;20128;-81
2022/04/29 02:12:46;;;;;;;3.22;1.52;;;7.70;99.90;;;;;;20828282;28;20133;-81
2022/04/29 02:22:48;;;;;;;6.40;1.63;;;7.80;99.90;;;;;;20808101;28;20102;-81
2022/04/29 02:32:50;;;;;;;8.23;1.30;;;7.90;99.90;;;;;;20821294;28;20048;-81
2022/04/29 02:42:51;;;;;;;1.98;1.00;;;7.90;99.90;;;;;;20827376;28;20128;-81
2022/04/29 02:52:52;;;;;;;4.55;1.02;;;7.90;99.90;;;;;;20831958;28;20136;-81
2022/04/29 03:02:56;;;;;;;3.33;1.50;;;7.80;99.90;;;;;;20803126;28;20540;-81
2022/04/29 03:12:57;;;;;;;3.83;1.20;;;7.80;99.90;;;;;;20808430;28;20609;-81
2022/04/29 03:22:58;;;;;;;4.32;1.40;;;7.70;99.90;;;;;;20817236;28;20059;-81
2022/04/29 03:33:00;;;;;;;3.00;1.13;;;7.70;99.90;;;;;;20796207;28;20029;-81
2022/04/29 03:43:02;;;;;;;4.15;1.00;;;7.70;99.90;;;;;;20811215;28;20045;-81
2022/04/29 03:53:06;;;;;;;4.70;1.45;;;7.70;99.90;;;;;;20791666;28;20531;-81
2022/04/29 04:03:07;;;;;;;2.50;0.85;;;7.60;99.90;;;;;;20807664;28;20037;-81
2022/04/29 04:13:13;;;;;;;3.42;1.15;;;7.60;99.90;;;;;;20827144;28;20037;-81
2022/04/29 04:23:14;;;;;;;2.25;0.82;;;7.50;99.90;;;;;;20811247;28;20048;-81
2022/04/29 04:33:16;;;;;;;2.55;1.33;;;7.50;99.90;;;;;;20809851;28;20033;-81
2022/04/29 04:43:17;;;;;;;4.68;1.52;;;7.50;99.90;;;;;;20714098;28;20049;-82
2022/04/29 04:53:18;;;;;;;7.50;3.08;;;7.50;99.90;;;;;;20728513;28;20044;-81
2022/04/29 05:03:19;;;;;;;2.58;1.50;;;7.50;99.90;;;;;;20738208;28;20243;-81
2022/04/29 05:13:20;;;;;;;3.03;1.48;;;7.60;99.90;;;;;;20708370;28;20110;-82
2022/04/29 05:23:21;;;;;;;5.30;1.50;;;7.60;99.90;;;;;;20708360;28;20064;-81
2022/04/29 05:33:23;;;;;;;4.00;1.25;;;7.50;99.90;;;;;;20715570;28;20592;-81
2022/04/29 05:43:24;;;;;;;4.63;1.52;;;7.50;99.90;;;;;;20814584;28;20104;-82
2022/04/29 05:53:25;;;;;;;3.00;1.30;;;7.60;99.90;;;;;;20815906;28;20125;-81
2022/04/29 06:03:26;;;;;;;3.80;1.05;;;7.80;99.90;;;;;;20827504;28;20148;-81
2022/04/29 06:13:27;;;;;;;5.85;1.60;;;7.80;99.90;;;;;;20812441;28;20177;-81
2022/04/29 06:23:30;;;;;;;3.10;1.35;;;7.90;99.90;;;;;;20835709;28;20056;-81
2022/04/29 06:33:33;;;;;;;3.08;1.33;;;8.30;99.90;;;;;;20815722;28;20167;-81
2022/04/29 06:43:34;;;;;;;4.22;1.40;;;8.40;99.90;;;;;;20813653;28;20075;-82
2022/04/29 06:53:35;;;;;;;5.35;2.10;;;8.60;99.90;;;;;;20827383;28;20072;-81
2022/04/29 07:03:39;;;;;;;4.13;0.98;;;8.70;99.90;;;;;;20823156;28;20038;-81
2022/04/29 07:13:42;;;;;;;3.13;1.17;;;8.90;99.90;;;;;;20806949;28;20061;-80
2022/04/29 07:23:44;;;;;;;5.75;1.42;;;9.00;99.90;;;;;;20824835;28;20040;-81
2022/04/29 07:33:45;;;;;;;5.00;1.77;;;9.30;99.90;;;;;;20820719;28;20059;-82
2022/04/29 07:43:48;;;;;;;4.70;1.48;;;9.50;99.90;;;;;;20773394;28;20123;-80
2022/04/29 07:53:49;;;;;;;3.80;1.30;;;9.60;99.90;;;;;;20774783;28;20038;-80
2022/04/29 08:03:55;;;;;;;3.50;1.70;;;9.70;99.90;;;;;;20786346;28;20053;-80
2022/04/29 08:13:56;;;;;;;3.33;1.10;;;9.80;99.90;;;;;;20785810;28;20043;-79
2022/04/29 08:23:59;;;;;;;2.88;1.35;;;9.90;99.90;;;;;;20791860;28;20053;-79
2022/04/29 08:34:01;;;;;;;3.05;1.25;;;10.00;99.90;;;;;;20824180;28;20037;-79
2022/04/29 08:44:08;;;;;;;3.72;1.27;;;10.00;99.90;;;;;;20795952;28;20048;-79
2022/04/29 08:58:36;;;;;;;4.07;1.40;;;10.10;99.90;;;;;;20782275;28;20152;-80
2022/04/29 09:04:31;;;;;;;4.60;1.52;;;10.20;99.90;;;;;;20819506;28;20045;-80
2022/04/29 09:14:32;;;;;;;1.67;0.77;;;10.10;99.90;;;;;;20825936;28;20112;-80
2022/04/29 09:24:35;;;;;;;3.63;0.80;;;10.20;99.90;;;;;;20848290;28;20046;-80
2022/04/29 09:34:53;;;;;;;3.97;1.33;;;10.30;99.90;;;;;;20854396;28;20128;-79
2022/04/29 09:44:54;;;;;;;4.78;1.10;;;10.40;99.90;;;;;;20829816;28;20102;-79
2022/04/29 09:55:17;;;;;;;4.78;1.65;;;10.50;99.90;;;;;;20830039;28;20497;-78
2022/04/29 10:05:19;;;;;;;3.83;1.20;;;10.60;99.90;;;;;;20800584;28;20045;-80
2022/04/29 10:15:22;;;;;;;3.92;1.75;;;10.80;99.90;;;;;;20841466;28;20105;-79
2022/04/29 10:25:26;;;;;;;2.72;0.90;;;11.00;99.90;;;;;;20804323;28;20048;-80
2022/04/29 10:35:39;;;;;;;3.22;1.25;;;11.00;99.90;;;;;;20732507;28;20042;-80
2022/04/29 10:46:06;;;;;;;2.38;0.85;;;11.30;99.90;;;;;;20655431;28;20050;-79
2022/04/29 10:56:30;;;;;;;6.75;1.27;;;11.70;99.90;;;;;;20682633;28;20313;-79
2022/04/29 11:06:42;;;;;;;2.17;0.80;;;11.70;99.90;;;;;;20688380;28;20073;-80
2022/04/29 11:16:56;;;;;;;2.67;1.00;;;11.60;99.90;;;;;;20658567;28;20122;-82
2022/04/29 11:26:58;;;;;;;2.10;0.93;;;11.60;99.90;;;;;;20626721;28;20049;-81
2022/04/29 11:36:59;;;;;;;3.03;1.20;;;11.70;99.90;;;;;;20641599;28;20102;-81
2022/04/29 11:47:02;;;;;;;3.78;2.00;;;11.80;99.90;;;;;;20637730;28;20129;-80
2022/04/29 11:57:03;;;;;;;2.85;0.95;;;12.00;99.90;;;;;;20634473;28;20350;-79
2022/04/29 12:07:06;;;;;;;3.38;1.13;;;12.40;99.90;;;;;;20637367;28;21327;-80
2022/04/29 12:17:07;;;;;;;3.05;1.83;;;12.90;99.90;;;;;;20621584;28;20081;-80
2022/04/29 12:27:09;;;;;;;4.68;1.63;;;13.30;99.90;;;;;;20615147;28;20519;-80
2022/04/29 12:37:11;;;;;;;2.70;1.02;;;13.40;99.90;;;;;;20610762;28;20137;-80
2022/04/29 12:47:24;;;;;;;2.97;1.33;;;13.00;99.90;;;;;;20642490;28;20050;-79
2022/04/29 12:57:31;;;;;;;3.72;1.10;;;13.00;99.90;;;;;;20654138;28;20039;-80
2022/04/29 13:07:34;;;;;;;3.15;1.90;;;13.20;99.90;;;;;;20626896;28;20125;-80
2022/04/29 13:17:35;;;;;;;3.35;1.13;;;13.20;99.90;;;;;;20706034;28;20049;-80
2022/04/29 13:27:37;;;;;;;2.40;1.00;;;13.50;99.90;;;;;;20627714;28;20447;-80
2022/04/29 13:37:39;;;;;;;2.45;1.67;;;14.30;99.90;;;;;;20630485;28;20532;-84
2022/04/29 13:47:41;;;;;;;2.30;1.52;;;14.60;99.90;;;;;;20651411;28;20097;-80
2022/04/29 13:57:43;;;;;;;2.20;0.80;;;14.40;99.90;;;;;;20665050;28;20034;-81
2022/04/29 14:07:44;;;;;;;3.00;1.30;;;14.20;99.90;;;;;;20641503;28;20066;-80
2022/04/29 14:17:45;;;;;;;3.38;1.35;;;13.70;99.90;;;;;;20632499;28;20065;-80
2022/04/29 14:27:47;;;;;;;3.00;1.25;;;13.50;99.90;;;;;;20610860;28;20045;-83
2022/04/29 14:37:50;;;;;;;2.30;0.75;;;13.50;99.90;;;;;;20617586;28;20048;-81
2022/04/29 14:47:51;;;;;;;2.35;1.02;;;13.40;99.90;;;;;;20640201;28;20043;-80
2022/04/29 14:57:53;;;;;;;2.90;1.15;;;13.30;99.90;;;;;;20634731;28;20038;-80
2022/04/29 15:07:54;;;;;;;2.53;1.08;;;13.30;99.90;;;;;;20649966;28;20057;-80
2022/04/29 15:17:55;;;;;;;4.88;1.55;;;13.30;99.90;;;;;;20647329;28;20109;-80
2022/04/29 15:27:56;;;;;;;2.55;0.90;;;12.90;99.90;;;;;;20654106;28;20030;-79
2022/04/29 15:37:58;;;;;;;6.72;1.25;;;12.70;99.90;;;;;;20660896;28;20039;-80
2022/04/29 15:47:59;;;;;;;2.72;1.42;;;12.50;99.90;;;;;;20645365;28;20411;-80
2022/04/29 15:58:01;;;;;;;2.25;0.90;;;12.40;99.90;;;;;;20640850;28;20399;-80
2022/04/29 16:08:03;;;;;;;1.92;0.95;;;12.40;99.90;;;;;;20611809;28;20481;-79
2022/04/29 16:28:26;;;;;;;2.67;1.10;;;12.10;99.90;;;;;;20648743;28;20657;-80
2022/04/29 16:38:27;;;;;;;2.38;0.85;;;12.00;99.90;;;;;;20614741;28;20097;-80
2022/04/29 16:48:28;;;;;;;3.10;1.20;;;12.00;99.90;;;;;;20649149;28;20547;-80
2022/04/29 17:08:49;;;;;;;1.20;0.52;;;11.90;99.90;;;;;;20678586;28;20102;-80
2022/04/29 17:18:50;;;;;;;3.42;0.70;;;12.00;99.90;;;;;;20653458;28;20105;-80
2022/04/29 17:28:53;;;;;;;1.40;0.95;;;12.00;99.90;;;;;;20637410;28;20038;-80
2022/04/29 17:38:55;;;;;;;1.85;1.13;;;11.70;99.90;;;;;;20685275;28;20246;-80
2022/04/29 17:48:57;;;;;;;2.53;1.00;;;11.40;99.90;;;;;;20701975;28;20038;-80
2022/04/29 17:59:00;;;;;;;1.73;0.85;;;11.30;99.90;;;;;;20687841;28;20061;-80
2022/04/29 18:09:03;;;;;;;1.60;0.50;;;11.20;99.90;;;;;;20676128;28;20045;-80
2022/04/29 18:19:04;;;;;;;6.75;1.13;;;11.20;99.90;;;;;;20673188;28;20152;-80
2022/04/29 18:29:06;;;;;;;3.08;1.30;;;11.10;99.90;;;;;;20675968;28;20327;-80
2022/04/29 18:39:07;;;;;;;3.83;0.50;;;11.00;99.90;;;;;;20656297;28;20054;-80
2022/04/29 18:49:09;;;;;;;3.03;0.82;;;10.70;99.90;;;;;;20662454;28;20069;-80
2022/04/29 18:59:11;;;;;;;1.42;0.75;;;10.70;99.90;;;;;;20647480;28;20040;-80
2022/04/29 19:09:12;;;;;;;1.95;0.82;;;10.50;99.90;;;;;;20647654;28;20105;-80
2022/04/29 19:19:13;;;;;;;3.95;0.98;;;10.40;99.90;;;;;;20664307;28;20121;-81
2022/04/29 19:29:14;;;;;;;1.70;0.60;;;10.30;99.90;;;;;;20676054;28;20101;-80
2022/04/29 19:39:16;;;;;;;3.17;1.00;;;10.40;99.90;;;;;;20662074;28;20546;-80
2022/04/29 19:49:18;;;;;;;2.13;0.77;;;10.30;99.90;;;;;;20657451;28;20054;-80
2022/04/29 19:59:18;;;;;;;3.60;0.90;;;10.20;99.90;;;;;;20640938;28;20519;-80
2022/04/29 20:09:21;;;;;;;2.05;0.82;;;10.10;99.90;;;;;;20672722;28;20136;-80
2022/04/29 20:19:23;;;;;;;2.17;0.68;;;10.10;99.90;;;;;;20651338;28;20475;-81
2022/04/29 20:29:24;;;;;;;4.20;1.02;;;9.90;99.90;;;;;;20652470;28;20042;-80
2022/04/29 20:49:46;;;;;;;3.58;0.50;;;9.70;99.90;;;;;;20645969;28;20126;-80
2022/04/29 20:59:47;;;;;;;1.92;0.50;;;9.60;99.90;;;;;;20637981;28;20042;-81
2022/04/29 21:09:49;;;;;;;0.98;0.40;;;9.40;99.90;;;;;;20636320;28;20030;-81
2022/04/29 21:19:50;;;;;;;1.80;0.80;;;9.30;99.90;;;;;;20646906;28;20030;-80
2022/04/29 21:40:11;;;;;;;2.88;0.50;;;9.30;99.90;;;;;;20638123;28;20355;-80
2022/04/29 21:50:13;;;;;;;1.33;0.32;;;9.20;99.90;;;;;;20642756;28;20069;-80
2022/04/29 22:00:20;;;;;;;1.40;0.50;;;9.20;99.90;;;;;;20633063;28;20091;-80
2022/04/29 22:10:22;;;;;;;3.97;0.63;;;9.00;99.90;;;;;;20650565;28;20045;-81
2022/04/29 22:20:23;;;;;;;0.57;0.30;;;9.00;99.90;;;;;;20651020;28;20049;-81
2022/04/29 22:30:24;;;;;;;1.50;0.35;;;8.90;99.90;;;;;;20656753;28;20064;-81
2022/04/29 22:40:26;;;;;;;0.75;0.40;;;8.90;99.90;;;;;;20652419;28;20414;-81
2022/04/29 22:50:27;;;;;;;1.10;0.35;;;8.80;99.90;;;;;;20649158;28;20034;-81
2022/04/29 23:00:28;;;;;;;1.20;0.55;;;8.70;99.90;;;;;;20614045;28;20677;-81
2022/04/29 23:10:29;;;;;;;1.55;0.52;;;8.50;99.90;;;;;;20639726;28;20042;-81
2022/04/29 23:20:31;;;;;;;1.42;0.50;;;8.40;99.90;;;;;;20627875;28;20034;-80
2022/04/29 23:30:32;;;;;;;1.45;0.90;;;8.40;99.90;;;;;;20626404;28;20228;-80
2022/04/29 23:40:33;;;;;;;1.65;0.52;;;8.20;99.90;;;;;;20643410;28;20072;-80
2022/04/29 23:50:34;;;;;;;1.45;0.70;;;8.10;99.90;;;;;;20642502;28;20033;-81
